sensor_id;sensor_type;location;lat;lon;timestamp;P1;durP1;ratioP1;P2;durP2;ratioP2
45676;SDS011;31390;51.186;6.830;2022-12-24T00:01:02;25.52;;;6.68;;
45676;SDS011;31390;51.186;6.830;2022-12-24T00:03:29;23.17;;;6.60;;
45676;SDS011;31390;51.186;6.830;2022-12-24T00:05:55;23.02;;;6.40;;
45676;SDS011;31390;51.186;6.830;2022-12-24T00:08:22;29.52;;;6.35;;
45676;SDS011;31390;51.186;6.830;2022-12-24T00:10:49;28.70;;;7.00;;
45676;SDS011;31390;51.186;6.830;2022-12-24T00:13:16;21.38;;;6.38;;
45676;SDS011;31390;51.186;6.830;2022-12-24T00:15:43;25.15;;;6.22;;
45676;SDS011;31390;51.186;6.830;2022-12-24T00:18:10;28.73;;;6.88;;
45676;SDS011;31390;51.186;6.830;2022-12-24T00:20:36;25.92;;;6.80;;
45676;SDS011;31390;51.186;6.830;2022-12-24T00:23:03;25.70;;;7.20;;
45676;SDS011;31390;51.186;6.830;2022-12-24T00:25:29;28.38;;;6.72;;
45676;SDS011;31390;51.186;6.830;2022-12-24T00:27:56;30.65;;;7.03;;
45676;SDS011;31390;51.186;6.830;2022-12-24T00:30:22;28.75;;;6.57;;
45676;SDS011;31390;51.186;6.830;2022-12-24T00:32:49;30.50;;;7.80;;
45676;SDS011;31390;51.186;6.830;2022-12-24T00:35:15;27.48;;;7.03;;
45676;SDS011;31390;51.186;6.830;2022-12-24T00:37:42;33.83;;;7.35;;
45676;SDS011;31390;51.186;6.830;2022-12-24T00:40:08;32.28;;;7.60;;
45676;SDS011;31390;51.186;6.830;2022-12-24T00:42:35;26.02;;;6.93;;
45676;SDS011;31390;51.186;6.830;2022-12-24T00:45:02;27.92;;;7.30;;
45676;SDS011;31390;51.186;6.830;2022-12-24T00:47:28;30.00;;;7.90;;
45676;SDS011;31390;51.186;6.830;2022-12-24T00:49:55;25.00;;;6.70;;
45676;SDS011;31390;51.186;6.830;2022-12-24T00:52:21;38.38;;;8.15;;
45676;SDS011;31390;51.186;6.830;2022-12-24T00:54:47;34.58;;;7.97;;
45676;SDS011;31390;51.186;6.830;2022-12-24T00:57:14;29.15;;;7.82;;
45676;SDS011;31390;51.186;6.830;2022-12-24T00:59:40;29.30;;;7.25;;
45676;SDS011;31390;51.186;6.830;2022-12-24T01:02:07;35.22;;;8.15;;
45676;SDS011;31390;51.186;6.830;2022-12-24T01:04:34;31.92;;;7.28;;
45676;SDS011;31390;51.186;6.830;2022-12-24T01:07:19;32.00;;;7.65;;
45676;SDS011;31390;51.186;6.830;2022-12-24T01:09:45;31.30;;;7.00;;
45676;SDS011;31390;51.186;6.830;2022-12-24T01:12:12;24.48;;;6.88;;
45676;SDS011;31390;51.186;6.830;2022-12-24T01:14:38;32.10;;;7.97;;
45676;SDS011;31390;51.186;6.830;2022-12-24T01:17:05;27.13;;;7.75;;
45676;SDS011;31390;51.186;6.830;2022-12-24T01:19:32;26.17;;;6.72;;
45676;SDS011;31390;51.186;6.830;2022-12-24T01:21:58;32.92;;;8.88;;
45676;SDS011;31390;51.186;6.830;2022-12-24T01:24:25;38.85;;;8.43;;
45676;SDS011;31390;51.186;6.830;2022-12-24T01:26:52;33.80;;;7.93;;
45676;SDS011;31390;51.186;6.830;2022-12-24T01:29:18;33.75;;;7.85;;
45676;SDS011;31390;51.186;6.830;2022-12-24T01:31:45;29.13;;;8.25;;
45676;SDS011;31390;51.186;6.830;2022-12-24T01:34:11;34.63;;;8.50;;
45676;SDS011;31390;51.186;6.830;2022-12-24T01:36:38;32.85;;;8.52;;
45676;SDS011;31390;51.186;6.830;2022-12-24T01:39:04;28.67;;;7.80;;
45676;SDS011;31390;51.186;6.830;2022-12-24T01:41:31;34.88;;;8.00;;
45676;SDS011;31390;51.186;6.830;2022-12-24T01:44:21;37.33;;;7.70;;
45676;SDS011;31390;51.186;6.830;2022-12-24T01:46:48;27.55;;;7.03;;
45676;SDS011;31390;51.186;6.830;2022-12-24T01:49:16;37.42;;;8.43;;
45676;SDS011;31390;51.186;6.830;2022-12-24T01:51:44;35.88;;;8.43;;
45676;SDS011;31390;51.186;6.830;2022-12-24T01:54:15;33.25;;;7.78;;
45676;SDS011;31390;51.186;6.830;2022-12-24T01:56:43;33.28;;;7.30;;
45676;SDS011;31390;51.186;6.830;2022-12-24T01:59:11;29.88;;;7.18;;
45676;SDS011;31390;51.186;6.830;2022-12-24T02:01:38;37.67;;;8.77;;
45676;SDS011;31390;51.186;6.830;2022-12-24T02:04:08;29.92;;;7.47;;
45676;SDS011;31390;51.186;6.830;2022-12-24T02:06:37;33.47;;;7.35;;
45676;SDS011;31390;51.186;6.830;2022-12-24T02:09:03;32.08;;;7.25;;
45676;SDS011;31390;51.186;6.830;2022-12-24T02:11:30;30.95;;;7.90;;
45676;SDS011;31390;51.186;6.830;2022-12-24T02:13:57;35.22;;;7.35;;
45676;SDS011;31390;51.186;6.830;2022-12-24T02:21:45;34.85;;;8.02;;
45676;SDS011;31390;51.186;6.830;2022-12-24T02:32:14;38.45;;;7.78;;
45676;SDS011;31390;51.186;6.830;2022-12-24T02:34:46;27.98;;;7.30;;
45676;SDS011;31390;51.186;6.830;2022-12-24T02:40:14;30.20;;;7.03;;
45676;SDS011;31390;51.186;6.830;2022-12-24T02:42:43;32.28;;;8.13;;
45676;SDS011;31390;51.186;6.830;2022-12-24T02:45:15;31.25;;;7.47;;
45676;SDS011;31390;51.186;6.830;2022-12-24T02:47:43;26.85;;;7.03;;
45676;SDS011;31390;51.186;6.830;2022-12-24T02:50:11;41.67;;;8.73;;
45676;SDS011;31390;51.186;6.830;2022-12-24T02:52:42;34.03;;;7.35;;
45676;SDS011;31390;51.186;6.830;2022-12-24T02:55:22;33.50;;;7.88;;
45676;SDS011;31390;51.186;6.830;2022-12-24T02:57:56;31.08;;;8.05;;
45676;SDS011;31390;51.186;6.830;2022-12-24T03:00:26;34.15;;;8.10;;
45676;SDS011;31390;51.186;6.830;2022-12-24T03:06:09;30.02;;;7.82;;
45676;SDS011;31390;51.186;6.830;2022-12-24T03:08:44;28.67;;;6.60;;
45676;SDS011;31390;51.186;6.830;2022-12-24T03:11:14;38.47;;;8.25;;
45676;SDS011;31390;51.186;6.830;2022-12-24T03:13:41;38.20;;;8.82;;
45676;SDS011;31390;51.186;6.830;2022-12-24T03:16:09;39.42;;;8.15;;
45676;SDS011;31390;51.186;6.830;2022-12-24T03:18:37;27.80;;;7.25;;
45676;SDS011;31390;51.186;6.830;2022-12-24T03:21:12;27.13;;;7.78;;
45676;SDS011;31390;51.186;6.830;2022-12-24T03:23:41;39.22;;;9.02;;
45676;SDS011;31390;51.186;6.830;2022-12-24T03:26:08;36.05;;;7.38;;
45676;SDS011;31390;51.186;6.830;2022-12-24T03:28:36;27.63;;;7.43;;
45676;SDS011;31390;51.186;6.830;2022-12-24T03:31:05;22.83;;;6.53;;
45676;SDS011;31390;51.186;6.830;2022-12-24T03:33:31;23.23;;;6.38;;
45676;SDS011;31390;51.186;6.830;2022-12-24T03:35:58;26.92;;;6.30;;
45676;SDS011;31390;51.186;6.830;2022-12-24T03:38:24;25.58;;;7.00;;
45676;SDS011;31390;51.186;6.830;2022-12-24T03:40:51;23.70;;;6.22;;
45676;SDS011;31390;51.186;6.830;2022-12-24T03:43:17;20.02;;;5.50;;
45676;SDS011;31390;51.186;6.830;2022-12-24T03:45:44;25.65;;;6.50;;
45676;SDS011;31390;51.186;6.830;2022-12-24T03:48:10;22.00;;;5.70;;
45676;SDS011;31390;51.186;6.830;2022-12-24T03:50:37;23.67;;;5.75;;
45676;SDS011;31390;51.186;6.830;2022-12-24T03:53:03;20.10;;;6.18;;
45676;SDS011;31390;51.186;6.830;2022-12-24T03:55:30;29.73;;;7.05;;
45676;SDS011;31390;51.186;6.830;2022-12-24T03:57:56;23.50;;;6.72;;
45676;SDS011;31390;51.186;6.830;2022-12-24T04:00:23;20.80;;;6.13;;
45676;SDS011;31390;51.186;6.830;2022-12-24T04:02:49;26.83;;;6.15;;
45676;SDS011;31390;51.186;6.830;2022-12-24T04:05:17;20.25;;;5.13;;
45676;SDS011;31390;51.186;6.830;2022-12-24T04:07:44;20.65;;;5.40;;
45676;SDS011;31390;51.186;6.830;2022-12-24T04:10:11;17.10;;;4.60;;
45676;SDS011;31390;51.186;6.830;2022-12-24T04:12:37;22.63;;;5.38;;
45676;SDS011;31390;51.186;6.830;2022-12-24T04:15:04;19.63;;;5.53;;
45676;SDS011;31390;51.186;6.830;2022-12-24T04:17:31;15.57;;;4.60;;
45676;SDS011;31390;51.186;6.830;2022-12-24T04:19:58;18.92;;;5.25;;
45676;SDS011;31390;51.186;6.830;2022-12-24T04:22:24;17.75;;;4.93;;
45676;SDS011;31390;51.186;6.830;2022-12-24T04:24:51;19.75;;;4.78;;
45676;SDS011;31390;51.186;6.830;2022-12-24T04:27:17;15.52;;;4.57;;
45676;SDS011;31390;51.186;6.830;2022-12-24T04:29:44;16.17;;;4.60;;
45676;SDS011;31390;51.186;6.830;2022-12-24T04:32:10;16.92;;;4.30;;
45676;SDS011;31390;51.186;6.830;2022-12-24T04:34:37;13.95;;;4.28;;
45676;SDS011;31390;51.186;6.830;2022-12-24T04:37:03;21.23;;;5.13;;
45676;SDS011;31390;51.186;6.830;2022-12-24T04:39:30;22.00;;;6.03;;
45676;SDS011;31390;51.186;6.830;2022-12-24T04:41:56;17.50;;;5.25;;
45676;SDS011;31390;51.186;6.830;2022-12-24T04:44:23;23.65;;;6.18;;
45676;SDS011;31390;51.186;6.830;2022-12-24T04:46:49;22.95;;;5.47;;
45676;SDS011;31390;51.186;6.830;2022-12-24T04:49:16;25.50;;;5.80;;
45676;SDS011;31390;51.186;6.830;2022-12-24T04:51:43;16.65;;;5.75;;
45676;SDS011;31390;51.186;6.830;2022-12-24T04:54:09;22.30;;;5.55;;
45676;SDS011;31390;51.186;6.830;2022-12-24T04:56:35;19.58;;;5.07;;
45676;SDS011;31390;51.186;6.830;2022-12-24T04:59:02;17.00;;;5.20;;
45676;SDS011;31390;51.186;6.830;2022-12-24T05:01:29;21.40;;;5.82;;
45676;SDS011;31390;51.186;6.830;2022-12-24T05:03:56;16.27;;;4.88;;
45676;SDS011;31390;51.186;6.830;2022-12-24T05:06:24;18.05;;;5.32;;
45676;SDS011;31390;51.186;6.830;2022-12-24T05:08:54;24.23;;;5.88;;
45676;SDS011;31390;51.186;6.830;2022-12-24T05:11:21;21.92;;;5.95;;
45676;SDS011;31390;51.186;6.830;2022-12-24T05:13:48;17.90;;;5.32;;
45676;SDS011;31390;51.186;6.830;2022-12-24T05:16:15;20.60;;;5.00;;
45676;SDS011;31390;51.186;6.830;2022-12-24T05:18:42;19.05;;;5.53;;
45676;SDS011;31390;51.186;6.830;2022-12-24T05:21:10;16.70;;;4.93;;
45676;SDS011;31390;51.186;6.830;2022-12-24T05:23:37;17.00;;;5.53;;
45676;SDS011;31390;51.186;6.830;2022-12-24T05:26:26;21.23;;;6.00;;
45676;SDS011;31390;51.186;6.830;2022-12-24T05:28:54;18.33;;;6.00;;
45676;SDS011;31390;51.186;6.830;2022-12-24T05:31:22;20.27;;;5.30;;
45676;SDS011;31390;51.186;6.830;2022-12-24T05:33:49;17.05;;;5.30;;
45676;SDS011;31390;51.186;6.830;2022-12-24T05:36:15;24.88;;;6.03;;
45676;SDS011;31390;51.186;6.830;2022-12-24T05:38:42;21.35;;;5.10;;
45676;SDS011;31390;51.186;6.830;2022-12-24T05:41:08;20.08;;;5.95;;
45676;SDS011;31390;51.186;6.830;2022-12-24T05:43:35;15.15;;;4.85;;
45676;SDS011;31390;51.186;6.830;2022-12-24T05:46:03;21.02;;;6.18;;
45676;SDS011;31390;51.186;6.830;2022-12-24T05:48:30;24.75;;;5.88;;
45676;SDS011;31390;51.186;6.830;2022-12-24T05:50:57;28.02;;;7.38;;
45676;SDS011;31390;51.186;6.830;2022-12-24T05:53:23;20.38;;;5.35;;
45676;SDS011;31390;51.186;6.830;2022-12-24T05:55:50;22.92;;;6.15;;
45676;SDS011;31390;51.186;6.830;2022-12-24T05:58:16;20.23;;;5.60;;
45676;SDS011;31390;51.186;6.830;2022-12-24T06:00:42;20.40;;;6.18;;
45676;SDS011;31390;51.186;6.830;2022-12-24T06:03:09;22.13;;;6.35;;
45676;SDS011;31390;51.186;6.830;2022-12-24T06:05:36;22.25;;;6.50;;
45676;SDS011;31390;51.186;6.830;2022-12-24T06:08:02;25.65;;;6.10;;
45676;SDS011;31390;51.186;6.830;2022-12-24T06:10:29;20.98;;;6.63;;
45676;SDS011;31390;51.186;6.830;2022-12-24T06:12:55;28.02;;;7.97;;
45676;SDS011;31390;51.186;6.830;2022-12-24T06:15:21;22.38;;;6.70;;
45676;SDS011;31390;51.186;6.830;2022-12-24T06:17:49;21.67;;;5.82;;
45676;SDS011;31390;51.186;6.830;2022-12-24T06:20:16;27.48;;;6.82;;
45676;SDS011;31390;51.186;6.830;2022-12-24T06:22:42;22.55;;;6.57;;
45676;SDS011;31390;51.186;6.830;2022-12-24T06:25:09;21.20;;;6.80;;
45676;SDS011;31390;51.186;6.830;2022-12-24T06:27:35;27.02;;;7.40;;
45676;SDS011;31390;51.186;6.830;2022-12-24T06:30:02;24.67;;;7.15;;
45676;SDS011;31390;51.186;6.830;2022-12-24T06:32:28;23.17;;;6.28;;
45676;SDS011;31390;51.186;6.830;2022-12-24T06:34:55;27.77;;;8.10;;
45676;SDS011;31390;51.186;6.830;2022-12-24T06:37:21;26.40;;;7.55;;
45676;SDS011;31390;51.186;6.830;2022-12-24T06:39:48;24.83;;;7.28;;
45676;SDS011;31390;51.186;6.830;2022-12-24T06:42:14;21.95;;;6.75;;
45676;SDS011;31390;51.186;6.830;2022-12-24T06:44:41;23.50;;;7.00;;
45676;SDS011;31390;51.186;6.830;2022-12-24T06:47:07;24.05;;;7.35;;
45676;SDS011;31390;51.186;6.830;2022-12-24T06:49:34;26.55;;;7.68;;
45676;SDS011;31390;51.186;6.830;2022-12-24T06:52:00;24.30;;;7.78;;
45676;SDS011;31390;51.186;6.830;2022-12-24T06:54:27;28.60;;;7.97;;
45676;SDS011;31390;51.186;6.830;2022-12-24T06:56:53;28.02;;;7.50;;
45676;SDS011;31390;51.186;6.830;2022-12-24T06:59:23;26.73;;;8.55;;
45676;SDS011;31390;51.186;6.830;2022-12-24T07:01:49;29.50;;;8.35;;
45676;SDS011;31390;51.186;6.830;2022-12-24T07:04:16;28.27;;;8.40;;
45676;SDS011;31390;51.186;6.830;2022-12-24T07:06:46;26.35;;;8.15;;
45676;SDS011;31390;51.186;6.830;2022-12-24T07:09:12;25.77;;;7.68;;
45676;SDS011;31390;51.186;6.830;2022-12-24T07:11:39;31.88;;;8.10;;
45676;SDS011;31390;51.186;6.830;2022-12-24T07:14:06;25.63;;;8.18;;
45676;SDS011;31390;51.186;6.830;2022-12-24T07:16:32;26.20;;;7.88;;
45676;SDS011;31390;51.186;6.830;2022-12-24T07:18:59;30.38;;;9.05;;
45676;SDS011;31390;51.186;6.830;2022-12-24T07:21:25;31.00;;;8.40;;
45676;SDS011;31390;51.186;6.830;2022-12-24T07:23:52;28.58;;;8.30;;
45676;SDS011;31390;51.186;6.830;2022-12-24T07:26:18;31.42;;;9.20;;
45676;SDS011;31390;51.186;6.830;2022-12-24T07:28:45;32.47;;;8.98;;
45676;SDS011;31390;51.186;6.830;2022-12-24T07:31:11;32.30;;;7.78;;
45676;SDS011;31390;51.186;6.830;2022-12-24T07:33:38;30.02;;;8.48;;
45676;SDS011;31390;51.186;6.830;2022-12-24T07:36:06;32.58;;;8.57;;
45676;SDS011;31390;51.186;6.830;2022-12-24T07:38:33;33.90;;;8.55;;
45676;SDS011;31390;51.186;6.830;2022-12-24T07:41:00;31.17;;;8.38;;
45676;SDS011;31390;51.186;6.830;2022-12-24T07:43:27;33.50;;;7.57;;
45676;SDS011;31390;51.186;6.830;2022-12-24T07:45:54;31.25;;;8.50;;
45676;SDS011;31390;51.186;6.830;2022-12-24T07:48:21;32.22;;;8.65;;
45676;SDS011;31390;51.186;6.830;2022-12-24T07:50:48;27.02;;;7.30;;
45676;SDS011;31390;51.186;6.830;2022-12-24T07:53:15;31.70;;;8.40;;
45676;SDS011;31390;51.186;6.830;2022-12-24T07:55:41;37.63;;;8.38;;
45676;SDS011;31390;51.186;6.830;2022-12-24T07:58:07;40.83;;;8.27;;
45676;SDS011;31390;51.186;6.830;2022-12-24T08:00:34;29.85;;;8.50;;
45676;SDS011;31390;51.186;6.830;2022-12-24T08:03:00;31.73;;;8.43;;
45676;SDS011;31390;51.186;6.830;2022-12-24T08:05:27;36.22;;;8.98;;
45676;SDS011;31390;51.186;6.830;2022-12-24T08:07:54;36.80;;;9.27;;
45676;SDS011;31390;51.186;6.830;2022-12-24T08:10:20;35.25;;;9.20;;
45676;SDS011;31390;51.186;6.830;2022-12-24T08:12:47;39.40;;;8.60;;
45676;SDS011;31390;51.186;6.830;2022-12-24T08:15:13;32.72;;;8.52;;
45676;SDS011;31390;51.186;6.830;2022-12-24T08:17:40;35.25;;;8.73;;
45676;SDS011;31390;51.186;6.830;2022-12-24T08:20:06;30.77;;;7.85;;
45676;SDS011;31390;51.186;6.830;2022-12-24T08:22:33;31.25;;;7.70;;
45676;SDS011;31390;51.186;6.830;2022-12-24T08:25:00;43.50;;;9.63;;
45676;SDS011;31390;51.186;6.830;2022-12-24T08:27:26;25.80;;;8.02;;
45676;SDS011;31390;51.186;6.830;2022-12-24T08:29:53;31.10;;;7.85;;
45676;SDS011;31390;51.186;6.830;2022-12-24T08:32:19;27.75;;;7.63;;
45676;SDS011;31390;51.186;6.830;2022-12-24T08:34:46;34.67;;;8.65;;
45676;SDS011;31390;51.186;6.830;2022-12-24T08:37:13;32.83;;;8.50;;
45676;SDS011;31390;51.186;6.830;2022-12-24T08:39:39;31.05;;;9.60;;
45676;SDS011;31390;51.186;6.830;2022-12-24T08:42:06;28.27;;;7.70;;
45676;SDS011;31390;51.186;6.830;2022-12-24T08:44:32;29.05;;;8.35;;
45676;SDS011;31390;51.186;6.830;2022-12-24T08:46:59;30.40;;;8.48;;
45676;SDS011;31390;51.186;6.830;2022-12-24T08:49:25;32.92;;;7.63;;
45676;SDS011;31390;51.186;6.830;2022-12-24T08:51:52;29.17;;;8.05;;
45676;SDS011;31390;51.186;6.830;2022-12-24T08:54:18;28.83;;;8.30;;
45676;SDS011;31390;51.186;6.830;2022-12-24T08:56:45;24.60;;;7.57;;
45676;SDS011;31390;51.186;6.830;2022-12-24T08:59:11;28.45;;;8.15;;
45676;SDS011;31390;51.186;6.830;2022-12-24T09:01:38;27.60;;;8.13;;
45676;SDS011;31390;51.186;6.830;2022-12-24T09:04:05;35.47;;;9.00;;
45676;SDS011;31390;51.186;6.830;2022-12-24T09:06:33;36.08;;;8.90;;
45676;SDS011;31390;51.186;6.830;2022-12-24T09:09:02;29.70;;;8.05;;
45676;SDS011;31390;51.186;6.830;2022-12-24T09:11:36;32.05;;;8.23;;
45676;SDS011;31390;51.186;6.830;2022-12-24T09:14:03;27.80;;;7.50;;
45676;SDS011;31390;51.186;6.830;2022-12-24T09:16:30;35.47;;;8.63;;
45676;SDS011;31390;51.186;6.830;2022-12-24T09:18:59;34.20;;;9.13;;
45676;SDS011;31390;51.186;6.830;2022-12-24T09:21:26;32.20;;;8.75;;
45676;SDS011;31390;51.186;6.830;2022-12-24T09:23:53;33.22;;;7.80;;
45676;SDS011;31390;51.186;6.830;2022-12-24T09:26:21;27.70;;;7.47;;
45676;SDS011;31390;51.186;6.830;2022-12-24T09:28:49;29.52;;;7.65;;
45676;SDS011;31390;51.186;6.830;2022-12-24T09:31:25;30.83;;;7.93;;
45676;SDS011;31390;51.186;6.830;2022-12-24T09:33:52;26.65;;;7.95;;
45676;SDS011;31390;51.186;6.830;2022-12-24T09:36:19;33.28;;;9.00;;
45676;SDS011;31390;51.186;6.830;2022-12-24T09:38:46;28.58;;;7.78;;
45676;SDS011;31390;51.186;6.830;2022-12-24T09:41:16;30.33;;;7.78;;
45676;SDS011;31390;51.186;6.830;2022-12-24T09:43:52;30.27;;;8.32;;
45676;SDS011;31390;51.186;6.830;2022-12-24T09:48:48;34.92;;;8.70;;
45676;SDS011;31390;51.186;6.830;2022-12-24T09:54:02;29.70;;;8.15;;
45676;SDS011;31390;51.186;6.830;2022-12-24T09:56:30;37.22;;;8.77;;
45676;SDS011;31390;51.186;6.830;2022-12-24T09:59:00;34.53;;;9.57;;
45676;SDS011;31390;51.186;6.830;2022-12-24T10:01:28;31.42;;;8.68;;
45676;SDS011;31390;51.186;6.830;2022-12-24T10:04:00;29.55;;;7.93;;
45676;SDS011;31390;51.186;6.830;2022-12-24T10:06:47;30.70;;;9.40;;
45676;SDS011;31390;51.186;6.830;2022-12-24T10:12:18;30.83;;;8.20;;
45676;SDS011;31390;51.186;6.830;2022-12-24T10:14:52;30.52;;;8.50;;
45676;SDS011;31390;51.186;6.830;2022-12-24T10:17:40;29.63;;;9.02;;
45676;SDS011;31390;51.186;6.830;2022-12-24T10:22:52;33.78;;;8.85;;
45676;SDS011;31390;51.186;6.830;2022-12-24T10:27:50;30.67;;;7.97;;
45676;SDS011;31390;51.186;6.830;2022-12-24T10:30:19;32.63;;;8.60;;
45676;SDS011;31390;51.186;6.830;2022-12-24T10:32:47;30.58;;;8.85;;
45676;SDS011;31390;51.186;6.830;2022-12-24T10:37:42;35.08;;;10.05;;
45676;SDS011;31390;51.186;6.830;2022-12-24T10:42:47;35.65;;;9.95;;
45676;SDS011;31390;51.186;6.830;2022-12-24T10:45:17;25.30;;;7.78;;
45676;SDS011;31390;51.186;6.830;2022-12-24T10:47:47;31.20;;;7.68;;
45676;SDS011;31390;51.186;6.830;2022-12-24T10:50:15;25.73;;;8.15;;
45676;SDS011;31390;51.186;6.830;2022-12-24T10:52:43;29.67;;;7.95;;
45676;SDS011;31390;51.186;6.830;2022-12-24T10:57:38;25.25;;;7.10;;
45676;SDS011;31390;51.186;6.830;2022-12-24T11:00:05;31.88;;;8.40;;
45676;SDS011;31390;51.186;6.830;2022-12-24T11:02:33;31.20;;;8.40;;
45676;SDS011;31390;51.186;6.830;2022-12-24T11:05:01;34.45;;;9.27;;
45676;SDS011;31390;51.186;6.830;2022-12-24T11:07:29;32.45;;;8.32;;
45676;SDS011;31390;51.186;6.830;2022-12-24T11:09:57;27.15;;;7.97;;
45676;SDS011;31390;51.186;6.830;2022-12-24T11:12:24;29.90;;;8.45;;
45676;SDS011;31390;51.186;6.830;2022-12-24T11:18:12;28.50;;;7.72;;
45676;SDS011;31390;51.186;6.830;2022-12-24T11:20:39;38.70;;;8.45;;
45676;SDS011;31390;51.186;6.830;2022-12-24T11:23:12;24.10;;;8.07;;
45676;SDS011;31390;51.186;6.830;2022-12-24T11:25:39;28.48;;;8.27;;
45676;SDS011;31390;51.186;6.830;2022-12-24T11:28:10;25.08;;;7.75;;
45676;SDS011;31390;51.186;6.830;2022-12-24T11:30:37;27.98;;;8.60;;
45676;SDS011;31390;51.186;6.830;2022-12-24T11:35:38;26.67;;;6.88;;
45676;SDS011;31390;51.186;6.830;2022-12-24T11:43:00;28.40;;;7.53;;
45676;SDS011;31390;51.186;6.830;2022-12-24T11:45:28;23.90;;;6.68;;
45676;SDS011;31390;51.186;6.830;2022-12-24T11:47:56;25.83;;;7.60;;
45676;SDS011;31390;51.186;6.830;2022-12-24T11:50:33;27.85;;;8.23;;
45676;SDS011;31390;51.186;6.830;2022-12-24T11:55:32;25.25;;;7.18;;
45676;SDS011;31390;51.186;6.830;2022-12-24T11:58:06;29.15;;;7.20;;
45676;SDS011;31390;51.186;6.830;2022-12-24T12:00:38;30.58;;;7.38;;
45676;SDS011;31390;51.186;6.830;2022-12-24T12:03:05;27.27;;;7.97;;
45676;SDS011;31390;51.186;6.830;2022-12-24T12:05:38;29.13;;;8.63;;
45676;SDS011;31390;51.186;6.830;2022-12-24T12:08:14;23.10;;;6.97;;
45676;SDS011;31390;51.186;6.830;2022-12-24T12:10:42;20.67;;;6.32;;
45676;SDS011;31390;51.186;6.830;2022-12-24T12:13:14;19.70;;;5.93;;
45676;SDS011;31390;51.186;6.830;2022-12-24T12:15:50;24.83;;;6.93;;
45676;SDS011;31390;51.186;6.830;2022-12-24T12:18:25;23.95;;;6.78;;
45676;SDS011;31390;51.186;6.830;2022-12-24T12:20:55;26.02;;;7.70;;
45676;SDS011;31390;51.186;6.830;2022-12-24T12:23:28;22.55;;;6.20;;
45676;SDS011;31390;51.186;6.830;2022-12-24T12:25:59;33.33;;;8.05;;
45676;SDS011;31390;51.186;6.830;2022-12-24T12:28:29;29.30;;;7.22;;
45676;SDS011;31390;51.186;6.830;2022-12-24T12:31:01;24.48;;;6.88;;
45676;SDS011;31390;51.186;6.830;2022-12-24T12:36:17;22.50;;;6.47;;
45676;SDS011;31390;51.186;6.830;2022-12-24T12:38:46;26.60;;;7.22;;
45676;SDS011;31390;51.186;6.830;2022-12-24T12:49:41;25.58;;;7.30;;
45676;SDS011;31390;51.186;6.830;2022-12-24T12:52:21;30.77;;;7.82;;
45676;SDS011;31390;51.186;6.830;2022-12-24T12:54:54;22.63;;;6.30;;
45676;SDS011;31390;51.186;6.830;2022-12-24T12:57:30;25.38;;;6.60;;
45676;SDS011;31390;51.186;6.830;2022-12-24T13:00:04;22.17;;;6.65;;
45676;SDS011;31390;51.186;6.830;2022-12-24T13:02:38;19.10;;;6.18;;
45676;SDS011;31390;51.186;6.830;2022-12-24T13:08:15;21.88;;;5.65;;
45676;SDS011;31390;51.186;6.830;2022-12-24T13:11:02;19.45;;;5.97;;
45676;SDS011;31390;51.186;6.830;2022-12-24T13:13:35;21.08;;;6.20;;
45676;SDS011;31390;51.186;6.830;2022-12-24T13:19:15;16.92;;;5.50;;
45676;SDS011;31390;51.186;6.830;2022-12-24T13:21:45;18.48;;;5.15;;
45676;SDS011;31390;51.186;6.830;2022-12-24T13:24:17;19.73;;;5.57;;
45676;SDS011;31390;51.186;6.830;2022-12-24T13:27:04;16.27;;;5.31;;
45676;SDS011;31390;51.186;6.830;2022-12-24T13:34:52;20.33;;;6.78;;
45676;SDS011;31390;51.186;6.830;2022-12-24T13:37:33;19.77;;;6.15;;
45676;SDS011;31390;51.186;6.830;2022-12-24T13:47:57;21.08;;;5.63;;
45676;SDS011;31390;51.186;6.830;2022-12-24T13:53:05;15.80;;;4.65;;
45676;SDS011;31390;51.186;6.830;2022-12-24T13:55:32;17.15;;;4.68;;
45676;SDS011;31390;51.186;6.830;2022-12-24T13:58:03;19.42;;;5.53;;
45676;SDS011;31390;51.186;6.830;2022-12-24T14:00:36;21.17;;;5.43;;
45676;SDS011;31390;51.186;6.830;2022-12-24T14:03:21;18.15;;;5.82;;
45676;SDS011;31390;51.186;6.830;2022-12-24T14:05:50;18.58;;;5.97;;
45676;SDS011;31390;51.186;6.830;2022-12-24T14:18:36;22.63;;;6.07;;
45676;SDS011;31390;51.186;6.830;2022-12-24T14:21:04;14.38;;;5.22;;
45676;SDS011;31390;51.186;6.830;2022-12-24T14:25:57;24.75;;;6.28;;
45676;SDS011;31390;51.186;6.830;2022-12-24T14:28:29;26.35;;;5.97;;
45676;SDS011;31390;51.186;6.830;2022-12-24T14:30:58;18.73;;;5.45;;
45676;SDS011;31390;51.186;6.830;2022-12-24T14:33:32;20.90;;;5.88;;
45676;SDS011;31390;51.186;6.830;2022-12-24T14:35:59;21.42;;;6.13;;
45676;SDS011;31390;51.186;6.830;2022-12-24T14:38:26;20.38;;;5.85;;
45676;SDS011;31390;51.186;6.830;2022-12-24T14:41:03;24.83;;;6.93;;
45676;SDS011;31390;51.186;6.830;2022-12-24T14:43:39;17.15;;;5.35;;
45676;SDS011;31390;51.186;6.830;2022-12-24T14:46:14;24.25;;;7.15;;
45676;SDS011;31390;51.186;6.830;2022-12-24T14:51:25;20.58;;;5.82;;
45676;SDS011;31390;51.186;6.830;2022-12-24T14:56:29;28.50;;;7.22;;
45676;SDS011;31390;51.186;6.830;2022-12-24T14:58:55;16.10;;;5.15;;
45676;SDS011;31390;51.186;6.830;2022-12-24T15:01:25;23.73;;;6.47;;
45676;SDS011;31390;51.186;6.830;2022-12-24T15:04:25;22.05;;;6.55;;
45676;SDS011;31390;51.186;6.830;2022-12-24T15:06:53;20.20;;;7.03;;
45676;SDS011;31390;51.186;6.830;2022-12-24T15:09:25;19.23;;;5.93;;
45676;SDS011;31390;51.186;6.830;2022-12-24T15:11:55;17.80;;;6.10;;
45676;SDS011;31390;51.186;6.830;2022-12-24T15:14:23;17.90;;;6.32;;
45676;SDS011;31390;51.186;6.830;2022-12-24T15:16:54;21.75;;;7.00;;
45676;SDS011;31390;51.186;6.830;2022-12-24T15:19:23;16.23;;;6.88;;
45676;SDS011;31390;51.186;6.830;2022-12-24T15:21:50;26.95;;;7.72;;
45676;SDS011;31390;51.186;6.830;2022-12-24T15:24:24;20.70;;;7.07;;
45676;SDS011;31390;51.186;6.830;2022-12-24T15:26:51;16.30;;;4.78;;
45676;SDS011;31390;51.186;6.830;2022-12-24T15:29:22;22.55;;;6.63;;
45676;SDS011;31390;51.186;6.830;2022-12-24T15:31:56;18.45;;;6.40;;
45676;SDS011;31390;51.186;6.830;2022-12-24T15:36:52;17.90;;;6.72;;
45676;SDS011;31390;51.186;6.830;2022-12-24T15:39:25;18.70;;;5.60;;
45676;SDS011;31390;51.186;6.830;2022-12-24T15:41:52;19.15;;;7.18;;
45676;SDS011;31390;51.186;6.830;2022-12-24T15:44:37;20.35;;;6.82;;
45676;SDS011;31390;51.186;6.830;2022-12-24T15:47:06;20.40;;;6.40;;
45676;SDS011;31390;51.186;6.830;2022-12-24T15:49:33;18.83;;;6.38;;
45676;SDS011;31390;51.186;6.830;2022-12-24T15:52:02;21.75;;;6.97;;
45676;SDS011;31390;51.186;6.830;2022-12-24T15:54:29;17.40;;;5.82;;
45676;SDS011;31390;51.186;6.830;2022-12-24T15:56:55;22.30;;;7.90;;
45676;SDS011;31390;51.186;6.830;2022-12-24T15:59:25;27.40;;;7.65;;
45676;SDS011;31390;51.186;6.830;2022-12-24T16:01:53;19.38;;;6.50;;
45676;SDS011;31390;51.186;6.830;2022-12-24T16:04:21;26.02;;;7.80;;
45676;SDS011;31390;51.186;6.830;2022-12-24T16:06:58;15.85;;;6.63;;
45676;SDS011;31390;51.186;6.830;2022-12-24T16:11:56;19.48;;;7.00;;
45676;SDS011;31390;51.186;6.830;2022-12-24T16:14:29;24.58;;;7.72;;
45676;SDS011;31390;51.186;6.830;2022-12-24T16:16:57;19.33;;;7.07;;
45676;SDS011;31390;51.186;6.830;2022-12-24T16:19:25;22.15;;;7.07;;
45676;SDS011;31390;51.186;6.830;2022-12-24T16:21:56;24.20;;;7.78;;
45676;SDS011;31390;51.186;6.830;2022-12-24T16:24:27;21.92;;;7.65;;
45676;SDS011;31390;51.186;6.830;2022-12-24T16:26:54;22.10;;;8.02;;
45676;SDS011;31390;51.186;6.830;2022-12-24T16:29:20;23.63;;;7.10;;
45676;SDS011;31390;51.186;6.830;2022-12-24T16:31:56;25.77;;;9.13;;